createdAt,value
2019-05-21T00:01:08.245Z,4.00
2019-05-21T00:03:39.328Z,4.47
2019-05-21T00:06:10.093Z,4.77
2019-05-21T00:08:40.961Z,4.37
2019-05-21T00:11:12.858Z,6.33
2019-05-21T00:13:43.685Z,4.17
2019-05-21T00:16:14.218Z,5.30
2019-05-21T00:18:44.987Z,6.27
2019-05-21T00:21:15.812Z,4.70
2019-05-21T00:23:49.029Z,5.23
2019-05-21T00:26:20.905Z,3.93
2019-05-21T00:29:26.971Z,3.93
2019-05-21T00:32:32.516Z,5.23
2019-05-21T00:35:50.344Z,4.90
2019-05-21T00:38:56.006Z,4.47
2019-05-21T00:42:04.296Z,5.03
2019-05-21T00:44:39.449Z,4.27
2019-05-21T00:47:12.054Z,4.60
2019-05-21T00:49:43.015Z,4.53
2019-05-21T00:52:13.899Z,5.37
2019-05-21T00:54:44.491Z,5.10
2019-05-21T00:57:15.405Z,4.50
2019-05-21T00:59:47.268Z,4.60
2019-05-21T01:02:18.001Z,7.83
2019-05-21T01:05:00.205Z,4.70
2019-05-21T01:07:22.463Z,4.73
2019-05-21T01:09:53.433Z,4.70
2019-05-21T01:12:24.245Z,5.30
2019-05-21T01:14:54.906Z,4.50
2019-05-21T01:17:25.815Z,5.70
2019-05-21T01:19:56.746Z,4.70
2019-05-21T01:22:27.455Z,7.33
2019-05-21T01:24:58.284Z,5.93
2019-05-21T01:27:28.970Z,9.50
2019-05-21T01:29:59.873Z,12.80
2019-05-21T01:32:30.919Z,6.10
2019-05-21T01:35:16.087Z,5.30
2019-05-21T01:37:34.506Z,9.33
2019-05-21T01:40:05.439Z,14.13
2019-05-21T01:42:37.996Z,5.67
2019-05-21T01:45:10.442Z,5.17
2019-05-21T01:47:41.258Z,4.90
2019-05-21T01:50:12.112Z,5.53
2019-05-21T01:52:43.965Z,9.10
2019-05-21T01:55:14.779Z,5.30
2019-05-21T01:57:45.376Z,5.10
2019-05-21T02:00:16.424Z,7.20
2019-05-21T02:02:47.067Z,5.10
2019-05-21T02:05:32.143Z,6.10
2019-05-21T02:07:51.873Z,5.13
2019-05-21T02:10:22.562Z,5.03
2019-05-21T02:12:53.930Z,4.37
2019-05-21T02:15:25.084Z,7.37
2019-05-21T02:17:55.887Z,4.53
2019-05-21T02:20:26.472Z,4.80
2019-05-21T02:22:57.395Z,5.53
2019-05-21T02:25:28.241Z,8.53
2019-05-21T02:28:00.970Z,6.53
2019-05-21T02:30:31.761Z,4.07
2019-05-21T02:33:03.545Z,6.30
2019-05-21T02:35:52.379Z,4.97
2019-05-21T02:38:06.631Z,5.03
2019-05-21T02:40:37.564Z,4.40
2019-05-21T02:43:08.475Z,5.07
2019-05-21T02:45:39.264Z,4.60
2019-05-21T02:48:10.183Z,6.33
2019-05-21T02:50:40.886Z,4.97
2019-05-21T02:53:11.705Z,4.40
2019-05-21T02:55:42.603Z,4.73
2019-05-21T02:58:13.359Z,8.50
2019-05-21T03:00:57.194Z,5.77
2019-05-21T03:03:30.145Z,7.80
2019-05-21T03:06:13.280Z,3.70
2019-05-21T03:08:33.745Z,3.73
2019-05-21T03:11:04.473Z,5.17
2019-05-21T03:13:35.263Z,4.00
2019-05-21T03:16:08.092Z,6.33
2019-05-21T03:18:38.891Z,5.00
2019-05-21T03:21:09.925Z,4.30
2019-05-21T03:23:40.789Z,4.50
2019-05-21T03:26:13.236Z,6.43
2019-05-21T03:28:45.081Z,4.03
2019-05-21T03:31:15.953Z,5.47
2019-05-21T03:33:46.895Z,4.47
2019-05-21T03:36:32.745Z,4.63
2019-05-21T03:38:51.367Z,7.40
2019-05-21T03:41:22.272Z,10.10
2019-05-21T03:43:53.110Z,4.60
2019-05-21T03:46:24.277Z,8.57
2019-05-21T03:48:54.989Z,5.90
2019-05-21T03:51:25.785Z,6.87
2019-05-21T03:53:56.536Z,5.70
2019-05-21T03:56:27.490Z,4.90
2019-05-21T03:58:58.713Z,4.90
2019-05-21T04:01:29.115Z,6.17
2019-05-21T04:03:59.899Z,5.27
2019-05-21T04:06:30.366Z,5.37
2019-05-21T04:09:00.755Z,7.70
2019-05-21T04:11:31.236Z,4.97
2019-05-21T04:14:02.345Z,5.43
2019-05-21T04:16:50.017Z,4.60
2019-05-21T04:19:27.210Z,6.47
2019-05-21T04:21:57.955Z,4.87
2019-05-21T04:24:28.864Z,4.50
2019-05-21T04:26:59.743Z,5.00
2019-05-21T04:29:31.304Z,4.83
2019-05-21T04:32:01.922Z,8.13
2019-05-21T04:34:33.699Z,5.77
2019-05-21T04:37:10.590Z,5.40
2019-05-21T04:39:36.781Z,5.80
2019-05-21T04:42:07.538Z,5.37
2019-05-21T04:44:40.049Z,5.40
2019-05-21T04:47:10.711Z,5.53
2019-05-21T04:49:42.911Z,4.90
2019-05-21T04:52:13.736Z,5.80
2019-05-21T04:54:44.313Z,5.63
2019-05-21T04:57:14.873Z,8.23
2019-05-21T04:59:45.558Z,5.67
2019-05-21T05:02:16.859Z,6.83
2019-05-21T05:04:49.503Z,11.07
2019-05-21T05:07:28.199Z,6.13
2019-05-21T05:09:53.148Z,5.93
2019-05-21T05:12:24.208Z,6.60
2019-05-21T05:14:54.969Z,8.60
2019-05-21T05:17:26.807Z,5.80
2019-05-21T05:19:57.766Z,5.60
2019-05-21T05:22:28.544Z,4.90
2019-05-21T05:24:59.309Z,5.17
2019-05-21T05:27:30.160Z,5.57
2019-05-21T05:30:02.886Z,5.67
2019-05-21T05:32:33.630Z,4.77
2019-05-21T05:35:05.444Z,5.53
2019-05-21T05:37:44.267Z,19.87
2019-05-21T05:40:09.075Z,6.00
2019-05-21T05:42:39.471Z,5.20
2019-05-21T05:45:11.023Z,9.87
2019-05-21T05:47:41.940Z,7.00
2019-05-21T05:50:17.017Z,4.90
2019-05-21T05:52:47.801Z,5.22
2019-05-21T05:55:18.902Z,5.10
2019-05-21T05:57:49.380Z,4.70
2019-05-21T06:00:20.208Z,5.53
2019-05-21T06:02:50.875Z,6.37
2019-05-21T06:05:21.550Z,5.28
2019-05-21T06:07:59.695Z,5.92
2019-05-21T06:10:24.842Z,6.43
2019-05-21T06:12:55.601Z,8.53
2019-05-21T06:15:26.406Z,5.70
2019-05-21T06:17:58.724Z,4.93
2019-05-21T06:20:29.471Z,5.92
2019-05-21T06:23:00.348Z,5.60
2019-05-21T06:25:31.319Z,6.33
2019-05-21T06:28:02.257Z,5.70
2019-05-21T06:30:33.946Z,6.30
2019-05-21T06:33:04.669Z,6.40
2019-05-21T06:35:35.356Z,6.30
2019-05-21T06:38:17.081Z,13.27
2019-05-21T06:40:39.940Z,5.70
2019-05-21T06:43:10.702Z,7.37
2019-05-21T06:45:41.703Z,6.60
2019-05-21T06:48:13.318Z,6.73
2019-05-21T06:50:44.678Z,5.60
2019-05-21T06:53:15.337Z,5.80
2019-05-21T06:55:46.473Z,4.70
2019-05-21T06:58:18.559Z,6.15
2019-05-21T07:00:49.222Z,6.10
2019-05-21T07:03:21.451Z,9.83
2019-05-21T07:05:58.796Z,8.80
2019-05-21T07:08:34.834Z,8.77
2019-05-21T07:10:58.858Z,6.83
2019-05-21T07:13:31.136Z,5.97
2019-05-21T07:16:01.942Z,6.00
2019-05-21T07:18:32.626Z,5.97
2019-05-21T07:21:03.700Z,7.30
2019-05-21T07:23:34.422Z,6.60
2019-05-21T07:26:06.739Z,6.93
2019-05-21T07:28:37.575Z,6.83
2019-05-21T07:31:09.236Z,8.50
2019-05-21T07:33:39.977Z,13.80
2019-05-21T07:36:10.910Z,8.37
2019-05-21T07:38:52.491Z,8.67
2019-05-21T07:41:14.128Z,9.60
2019-05-21T07:43:44.950Z,7.40
2019-05-21T07:46:15.907Z,12.57
2019-05-21T07:48:46.530Z,6.90
2019-05-21T07:51:17.508Z,12.77
2019-05-21T07:53:48.241Z,7.43
2019-05-21T07:56:19.233Z,10.70
2019-05-21T07:58:49.975Z,20.20
2019-05-21T08:01:22.266Z,10.63
2019-05-21T08:03:53.261Z,8.87
2019-05-21T08:06:25.469Z,18.37
2019-05-21T08:09:12.765Z,9.43
2019-05-21T08:11:31.306Z,7.80
2019-05-21T08:14:03.629Z,8.20
2019-05-21T08:16:34.500Z,14.17
2019-05-21T08:19:05.317Z,10.03
2019-05-21T08:21:36.137Z,11.93
2019-05-21T08:24:07.011Z,13.37
2019-05-21T08:26:37.601Z,11.70
2019-05-21T08:29:08.297Z,8.00
2019-05-21T08:31:40.083Z,11.90
2019-05-21T08:34:11.082Z,11.83
2019-05-21T08:36:41.932Z,10.60
2019-05-21T08:39:27.626Z,9.90
2019-05-21T08:41:45.969Z,16.07
2019-05-21T08:44:16.714Z,7.70
2019-05-21T08:46:48.676Z,7.20
2019-05-21T08:49:19.717Z,8.00
2019-05-21T08:51:50.592Z,6.87
2019-05-21T08:54:40.168Z,11.30
2019-05-21T08:57:11.179Z,10.23
2019-05-21T08:59:41.949Z,7.77
2019-05-21T09:02:12.781Z,8.00
2019-05-21T09:04:46.649Z,11.33
2019-05-21T09:07:17.337Z,7.90
2019-05-21T09:09:51.002Z,7.57
2019-05-21T09:12:20.704Z,17.53
2019-05-21T09:14:52.618Z,7.27
2019-05-21T09:17:23.323Z,13.87
2019-05-21T09:19:54.319Z,8.07
2019-05-21T09:22:25.709Z,11.20
2019-05-21T09:24:56.578Z,10.43
2019-05-21T09:27:27.117Z,6.50
2019-05-21T09:29:58.936Z,8.53
2019-05-21T09:32:30.161Z,6.67
2019-05-21T09:35:02.103Z,9.73
2019-05-21T09:37:33.218Z,8.00
2019-05-21T09:40:05.323Z,7.17
2019-05-21T09:42:37.483Z,12.10
2019-05-21T09:45:09.288Z,7.33
2019-05-21T09:47:40.620Z,16.57
2019-05-21T09:50:11.933Z,7.53
2019-05-21T09:52:42.654Z,19.50
2019-05-21T09:55:13.782Z,13.40
2019-05-21T09:57:57.747Z,11.40
2019-05-21T10:01:06.564Z,14.90
2019-05-21T10:03:40.994Z,14.40
2019-05-21T10:06:11.683Z,11.93
2019-05-21T10:08:42.373Z,13.93
2019-05-21T10:11:13.207Z,13.83
2019-05-21T10:13:44.069Z,14.33
2019-05-21T10:16:15.075Z,16.23
2019-05-21T10:18:47.350Z,12.53
2019-05-21T10:21:18.464Z,12.47
2019-05-21T10:23:50.808Z,9.53
2019-05-21T10:26:21.857Z,11.43
2019-05-21T10:28:52.764Z,15.10
2019-05-21T10:31:23.769Z,10.60
2019-05-21T10:33:54.657Z,12.27
2019-05-21T10:36:25.520Z,10.93
2019-05-21T10:38:56.575Z,13.50
2019-05-21T10:41:27.564Z,28.57
2019-05-21T10:44:00.518Z,11.03
2019-05-21T10:46:31.348Z,11.23
2019-05-21T10:49:02.108Z,14.53
2019-05-21T10:51:32.939Z,15.90
2019-05-21T10:54:04.223Z,16.57
2019-05-21T10:56:47.214Z,16.10
2019-05-21T10:59:07.868Z,10.70
2019-05-21T11:01:56.350Z,12.90
2019-05-21T11:04:52.585Z,18.70
2019-05-21T11:07:24.043Z,18.87
2019-05-21T11:09:55.181Z,14.07
2019-05-21T11:12:26.492Z,13.90
2019-05-21T11:14:57.748Z,10.33
2019-05-21T11:17:28.458Z,14.60
2019-05-21T11:19:59.301Z,20.33
2019-05-21T11:22:32.371Z,12.07
2019-05-21T11:25:05.203Z,13.37
2019-05-21T11:27:37.205Z,12.73
2019-05-21T11:30:09.378Z,18.13
2019-05-21T11:32:40.082Z,23.30
2019-05-21T11:35:11.217Z,12.50
2019-05-21T11:37:42.120Z,13.13
2019-05-21T11:40:13.613Z,8.97
2019-05-21T11:42:44.934Z,12.20
2019-05-21T11:45:31.039Z,13.53
2019-05-21T11:47:48.716Z,17.83
2019-05-21T11:50:19.930Z,14.47
2019-05-21T11:52:50.870Z,15.70
2019-05-21T11:55:21.534Z,16.93
2019-05-21T11:57:52.300Z,16.43
2019-05-21T12:00:26.908Z,23.20
2019-05-21T12:02:57.288Z,20.43
2019-05-21T12:05:27.719Z,28.67
2019-05-21T12:07:58.319Z,18.80
2019-05-21T12:10:28.683Z,13.73
2019-05-21T12:12:59.053Z,21.10
2019-05-21T12:15:29.469Z,18.13
2019-05-21T12:17:59.878Z,17.03
2019-05-21T12:20:36.883Z,11.37
2019-05-21T12:23:03.217Z,17.33
2019-05-21T12:25:33.950Z,11.57
2019-05-21T12:28:06.220Z,13.60
2019-05-21T12:30:36.801Z,13.83
2019-05-21T12:33:07.665Z,12.20
2019-05-21T12:35:41.620Z,13.40
2019-05-21T12:38:12.124Z,17.83
2019-05-21T12:40:42.698Z,15.33
2019-05-21T12:43:13.496Z,11.23
2019-05-21T12:45:43.956Z,9.27
2019-05-21T12:48:14.319Z,17.93
2019-05-21T12:50:45.828Z,12.37
2019-05-21T12:53:16.807Z,17.53
2019-05-21T12:55:47.964Z,11.40
2019-05-21T12:58:18.346Z,19.40
2019-05-21T13:00:50.985Z,14.60
2019-05-21T13:03:21.755Z,12.83
2019-05-21T13:05:52.433Z,10.00
2019-05-21T13:08:23.233Z,15.80
2019-05-21T13:10:54.037Z,15.07
2019-05-21T13:13:24.908Z,17.30
2019-05-21T13:15:56.102Z,13.43
2019-05-21T13:18:26.884Z,15.03
2019-05-21T13:20:57.425Z,20.73
2019-05-21T13:23:28.741Z,16.70
2019-05-21T13:25:59.522Z,14.80
2019-05-21T13:28:30.294Z,16.90
2019-05-21T13:31:00.996Z,13.83
2019-05-21T13:33:31.575Z,16.43
2019-05-21T13:36:05.802Z,20.93
2019-05-21T13:38:36.636Z,21.30
2019-05-21T13:41:07.874Z,15.00
2019-05-21T13:43:38.644Z,21.83
2019-05-21T13:46:09.567Z,21.17
2019-05-21T13:48:47.061Z,27.03
2019-05-21T13:51:19.114Z,25.20
2019-05-21T13:53:50.028Z,18.47
2019-05-21T13:56:20.969Z,18.77
2019-05-21T13:58:51.913Z,35.03
2019-05-21T14:01:39.357Z,39.87
2019-05-21T14:03:56.300Z,22.00
2019-05-21T14:06:26.974Z,28.43
2019-05-21T14:08:57.642Z,32.33
2019-05-21T14:11:28.896Z,27.93
2019-05-21T14:13:59.683Z,19.30
2019-05-21T14:16:30.417Z,13.00
2019-05-21T14:19:03.116Z,29.87
2019-05-21T14:21:33.697Z,24.23
2019-05-21T14:24:04.760Z,21.13
2019-05-21T14:26:35.514Z,15.13
2019-05-21T14:29:06.796Z,25.83
2019-05-21T14:31:37.343Z,22.60
2019-05-21T14:34:07.701Z,15.00
2019-05-21T14:36:39.915Z,22.40
2019-05-21T14:39:14.032Z,11.30
2019-05-21T14:41:44.479Z,15.80
2019-05-21T14:44:14.867Z,15.23
2019-05-21T14:46:45.451Z,22.90
2019-05-21T14:49:16.325Z,14.03
2019-05-21T14:51:46.876Z,8.50
2019-05-21T14:54:26.161Z,12.57
2019-05-21T14:56:49.648Z,9.13
2019-05-21T14:59:20.085Z,10.40
2019-05-21T15:01:51.066Z,15.10
2019-05-21T15:04:21.727Z,10.40
2019-05-21T15:06:52.453Z,14.30
2019-05-21T15:09:22.849Z,13.70
2019-05-21T15:11:53.252Z,14.87
2019-05-21T15:14:24.487Z,12.70
2019-05-21T15:16:55.389Z,13.00
2019-05-21T15:19:26.137Z,13.60
2019-05-21T15:21:57.279Z,9.63
2019-05-21T15:24:33.317Z,11.10
2019-05-21T15:27:04.011Z,11.20
2019-05-21T15:29:34.735Z,21.70
2019-05-21T15:32:05.413Z,28.67
2019-05-21T15:34:37.330Z,10.47
2019-05-21T15:37:08.880Z,17.40
2019-05-21T15:39:39.719Z,15.10
2019-05-21T15:42:10.499Z,19.30
2019-05-21T15:44:42.748Z,23.97
2019-05-21T15:47:14.092Z,19.63
2019-05-21T15:49:45.654Z,17.80
2019-05-21T15:52:16.484Z,10.33
2019-05-21T15:54:47.147Z,16.50
2019-05-21T15:57:17.940Z,19.97
2019-05-21T15:59:48.873Z,15.03
2019-05-21T16:02:19.619Z,11.10
2019-05-21T16:04:50.377Z,16.20
2019-05-21T16:07:22.311Z,10.10
2019-05-21T16:09:53.203Z,9.53
2019-05-21T16:12:24.292Z,16.67
2019-05-21T16:14:55.714Z,8.67
2019-05-21T16:17:26.763Z,10.20
2019-05-21T16:19:57.389Z,6.73
2019-05-21T16:22:28.137Z,12.00
2019-05-21T16:24:59.032Z,5.90
2019-05-21T16:27:30.054Z,6.83
2019-05-21T16:30:00.883Z,5.87
2019-05-21T16:32:32.109Z,5.37
2019-05-21T16:35:02.886Z,5.70
2019-05-21T16:37:35.259Z,5.20
2019-05-21T16:40:08.035Z,6.50
2019-05-21T16:42:39.022Z,10.20
2019-05-21T16:45:11.738Z,6.13
2019-05-21T16:47:46.054Z,7.30
2019-05-21T16:50:17.181Z,5.10
2019-05-21T16:52:48.057Z,6.57
2019-05-21T16:55:18.944Z,5.50
2019-05-21T16:57:51.393Z,5.50
2019-05-21T17:00:22.665Z,5.33
2019-05-21T17:02:53.039Z,6.97
2019-05-21T17:05:24.459Z,5.20
2019-05-21T17:07:54.788Z,8.33
2019-05-21T17:10:25.377Z,20.37
2019-05-21T17:12:55.759Z,13.70
2019-05-21T17:15:26.295Z,10.73
2019-05-21T17:17:56.768Z,14.87
2019-05-21T17:20:27.748Z,8.63
2019-05-21T17:22:58.655Z,9.90
2019-05-21T17:25:28.983Z,8.73
2019-05-21T17:27:59.458Z,12.57
2019-05-21T17:30:29.924Z,12.83
2019-05-21T17:33:00.381Z,11.77
2019-05-21T17:35:30.871Z,12.43
2019-05-21T17:38:02.473Z,7.70
2019-05-21T17:40:33.474Z,9.13
2019-05-21T17:43:04.138Z,8.73
2019-05-21T17:45:34.797Z,6.17
2019-05-21T17:48:05.718Z,9.70
2019-05-21T17:50:37.814Z,9.30
2019-05-21T17:53:08.545Z,5.20
2019-05-21T17:55:39.547Z,6.47
2019-05-21T17:58:10.588Z,5.17
2019-05-21T18:00:52.500Z,7.30
2019-05-21T18:03:23.420Z,5.40
2019-05-21T18:05:55.477Z,5.80
2019-05-21T18:08:27.236Z,4.63
2019-05-21T18:10:57.838Z,4.20
2019-05-21T18:13:28.601Z,7.53
2019-05-21T18:15:59.445Z,4.57
2019-05-21T18:18:30.531Z,3.87
2019-05-21T18:21:02.385Z,5.90
2019-05-21T18:23:33.274Z,8.23
2019-05-21T18:26:03.749Z,4.83
2019-05-21T18:28:34.693Z,3.13
2019-05-21T18:31:05.542Z,4.53
2019-05-21T18:33:35.929Z,3.13
2019-05-21T18:36:06.543Z,3.40
2019-05-21T18:38:37.921Z,3.20
2019-05-21T18:41:08.348Z,3.00
2019-05-21T18:43:38.713Z,2.80
2019-05-21T18:46:09.122Z,2.50
2019-05-21T18:48:39.615Z,3.00
2019-05-21T18:51:10.013Z,2.80
2019-05-21T18:53:40.384Z,4.17
2019-05-21T18:56:10.869Z,3.47
2019-05-21T18:58:44.292Z,2.77
2019-05-21T19:01:16.724Z,5.83
2019-05-21T19:03:47.154Z,2.70
2019-05-21T19:06:17.625Z,4.10
2019-05-21T19:08:48.143Z,3.37
2019-05-21T19:11:18.779Z,3.13
2019-05-21T19:13:49.460Z,2.57
2019-05-21T19:16:19.929Z,3.10
2019-05-21T19:18:50.783Z,2.60
2019-05-21T19:21:21.302Z,5.40
2019-05-21T19:23:53.246Z,2.60
2019-05-21T19:26:24.279Z,2.83
2019-05-21T19:28:54.747Z,2.70
2019-05-21T19:31:25.679Z,2.73
2019-05-21T19:33:56.212Z,2.10
2019-05-21T19:36:31.281Z,2.40
2019-05-21T19:39:02.821Z,4.90
2019-05-21T19:41:33.448Z,2.60
2019-05-21T19:44:03.869Z,2.80
2019-05-21T19:46:34.396Z,2.20
2019-05-21T19:49:04.795Z,2.40
2019-05-21T19:51:35.276Z,2.53
2019-05-21T19:54:05.788Z,2.20
2019-05-21T19:56:36.717Z,2.60
2019-05-21T19:59:07.389Z,2.30
2019-05-21T20:01:38.022Z,2.70
2019-05-21T20:04:10.120Z,2.93
2019-05-21T20:06:40.614Z,5.13
2019-05-21T20:09:15.286Z,6.37
2019-05-21T20:11:46.637Z,4.13
2019-05-21T20:14:16.999Z,4.40
2019-05-21T20:16:48.127Z,4.70
2019-05-21T20:19:21.534Z,4.77
2019-05-21T20:21:51.944Z,5.67
2019-05-21T20:24:23.128Z,4.10
2019-05-21T20:26:53.501Z,4.00
2019-05-21T20:29:24.111Z,6.80
2019-05-21T20:31:54.595Z,5.70
2019-05-21T20:34:25.485Z,4.30
2019-05-21T20:37:00.274Z,6.23
2019-05-21T20:39:41.603Z,4.30
2019-05-21T20:42:13.902Z,4.00
2019-05-21T20:44:46.811Z,5.00
2019-05-21T20:47:18.522Z,5.47
2019-05-21T20:49:50.997Z,4.97
2019-05-21T20:52:21.869Z,4.83
2019-05-21T20:54:54.643Z,4.73
2019-05-21T20:57:25.549Z,5.10
2019-05-21T20:59:56.252Z,3.97
2019-05-21T21:02:28.595Z,6.73
2019-05-21T21:04:59.075Z,3.10
2019-05-21T21:07:31.067Z,4.90
2019-05-21T21:10:02.516Z,3.90
2019-05-21T21:12:33.517Z,3.57
2019-05-21T21:15:04.131Z,4.00
2019-05-21T21:17:35.283Z,4.00
2019-05-21T21:20:08.029Z,4.40
2019-05-21T21:22:38.371Z,4.00
2019-05-21T21:25:10.624Z,4.20
2019-05-21T21:27:42.880Z,3.80
2019-05-21T21:30:13.782Z,4.83
2019-05-21T21:32:44.595Z,4.40
2019-05-21T21:35:16.037Z,4.03
2019-05-21T21:37:52.768Z,4.40
2019-05-21T21:40:25.084Z,12.00
2019-05-21T21:42:57.981Z,4.10
2019-05-21T21:45:29.046Z,4.90
2019-05-21T21:47:59.855Z,4.07
2019-05-21T21:50:32.096Z,10.70
2019-05-21T21:53:03.530Z,3.93
2019-05-21T21:55:35.330Z,4.53
2019-05-21T21:58:09.658Z,5.77
2019-05-21T22:01:20.824Z,3.53
2019-05-21T22:03:53.404Z,4.53
2019-05-21T22:06:27.101Z,4.30
2019-05-21T22:08:58.537Z,4.50
2019-05-21T22:11:30.156Z,4.17
2019-05-21T22:14:01.394Z,5.70
2019-05-21T22:16:33.027Z,6.00
2019-05-21T22:19:03.642Z,4.43
2019-05-21T22:21:34.393Z,4.60
2019-05-21T22:24:05.514Z,4.60
2019-05-21T22:26:37.452Z,4.93
2019-05-21T22:29:08.447Z,12.80
2019-05-21T22:31:39.608Z,3.77
2019-05-21T22:34:10.967Z,3.60
2019-05-21T22:36:42.660Z,4.20
2019-05-21T22:39:20.439Z,5.80
2019-05-21T22:41:51.216Z,4.97
2019-05-21T22:44:22.732Z,3.53
2019-05-21T22:46:54.110Z,3.63
2019-05-21T22:49:33.081Z,3.40
2019-05-21T22:51:59.176Z,3.10
2019-05-21T22:54:30.118Z,3.00
2019-05-21T22:57:00.864Z,3.80
2019-05-21T22:59:31.680Z,3.67
2019-05-21T23:02:04.115Z,3.50
2019-05-21T23:04:34.839Z,3.60
2019-05-21T23:07:06.053Z,2.80
2019-05-21T23:09:36.910Z,4.87
2019-05-21T23:12:08.675Z,2.97
2019-05-21T23:14:39.668Z,3.47
2019-05-21T23:17:12.448Z,3.30
2019-05-21T23:19:45.311Z,3.00
2019-05-21T23:22:18.767Z,3.50
2019-05-21T23:24:50.156Z,2.97
2019-05-21T23:27:23.147Z,2.60
2019-05-21T23:29:54.591Z,3.43
2019-05-21T23:32:25.453Z,3.17
2019-05-21T23:34:56.228Z,2.90
2019-05-21T23:37:28.876Z,3.30
2019-05-21T23:40:02.456Z,3.10
2019-05-21T23:42:34.634Z,3.60
2019-05-21T23:45:06.121Z,4.33
2019-05-21T23:47:38.707Z,3.50
2019-05-21T23:50:11.059Z,4.17
2019-05-21T23:52:42.136Z,7.10
2019-05-21T23:55:13.404Z,4.10
2019-05-21T23:57:45.067Z,3.60
